sensor_id;sensor_type;location;lat;lon;timestamp;pressure;altitude;pressure_sealevel;temperature;humidity
65756;BME280;52489;47.502;18.940;2023-02-23T00:00:35;98135.69;;;6.79;75.31
65756;BME280;52489;47.502;18.940;2023-02-23T00:01:39;98136.47;;;6.79;74.97
65756;BME280;52489;47.502;18.940;2023-02-23T00:02:43;98143.75;;;6.82;73.80
65756;BME280;52489;47.502;18.940;2023-02-23T00:03:47;98128.91;;;6.83;74.04
65756;BME280;52489;47.502;18.940;2023-02-23T00:04:51;98128.31;;;7.01;72.27
65756;BME280;52489;47.502;18.940;2023-02-23T00:05:53;98132.25;;;6.89;72.22
65756;BME280;52489;47.502;18.940;2023-02-23T00:06:56;98134.63;;;6.85;72.14
65756;BME280;52489;47.502;18.940;2023-02-23T00:07:59;98132.53;;;6.92;71.57
65756;BME280;52489;47.502;18.940;2023-02-23T00:09:04;98139.81;;;6.95;71.32
65756;BME280;52489;47.502;18.940;2023-02-23T00:10:25;98136.66;;;6.98;71.05
65756;BME280;52489;47.502;18.940;2023-02-23T00:11:31;98140.06;;;6.89;71.31
65756;BME280;52489;47.502;18.940;2023-02-23T00:12:35;98140.87;;;6.89;71.62
65756;BME280;52489;47.502;18.940;2023-02-23T00:13:39;98126.81;;;6.90;71.63
65756;BME280;52489;47.502;18.940;2023-02-23T00:14:42;98126.03;;;6.84;71.89
65756;BME280;52489;47.502;18.940;2023-02-23T00:15:45;98135.19;;;6.77;72.59
65756;BME280;52489;47.502;18.940;2023-02-23T00:16:48;98135.94;;;6.88;71.94
65756;BME280;52489;47.502;18.940;2023-02-23T00:17:53;98132.31;;;6.83;71.76
65756;BME280;52489;47.502;18.940;2023-02-23T00:18:57;98127.59;;;6.86;71.80
65756;BME280;52489;47.502;18.940;2023-02-23T00:20:04;98130.94;;;6.91;70.95
65756;BME280;52489;47.502;18.940;2023-02-23T00:21:18;98129.41;;;6.90;70.93
65756;BME280;52489;47.502;18.940;2023-02-23T00:22:24;98130.47;;;6.89;70.85
65756;BME280;52489;47.502;18.940;2023-02-23T00:23:26;98127.81;;;6.94;70.70
65756;BME280;52489;47.502;18.940;2023-02-23T00:24:29;98128.34;;;6.96;70.48
65756;BME280;52489;47.502;18.940;2023-02-23T00:25:32;98130.12;;;7.01;70.69
65756;BME280;52489;47.502;18.940;2023-02-23T00:26:37;98128.84;;;6.98;70.47
65756;BME280;52489;47.502;18.940;2023-02-23T00:27:40;98122.59;;;6.94;70.94
65756;BME280;52489;47.502;18.940;2023-02-23T00:28:48;98127.81;;;6.94;70.17
65756;BME280;52489;47.502;18.940;2023-02-23T00:29:52;98126.25;;;6.93;69.75
65756;BME280;52489;47.502;18.940;2023-02-23T00:30:56;98134.63;;;6.85;70.10
65756;BME280;52489;47.502;18.940;2023-02-23T00:32:01;98128.66;;;6.79;70.63
65756;BME280;52489;47.502;18.940;2023-02-23T00:33:04;98125.56;;;6.77;70.53
65756;BME280;52489;47.502;18.940;2023-02-23T00:34:09;98133.06;;;6.89;69.64
65756;BME280;52489;47.502;18.940;2023-02-23T00:35:12;98130.78;;;6.77;70.45
65756;BME280;52489;47.502;18.940;2023-02-23T00:36:22;98129.44;;;6.80;70.31
65756;BME280;52489;47.502;18.940;2023-02-23T00:37:26;98135.19;;;6.77;70.06
65756;BME280;52489;47.502;18.940;2023-02-23T00:38:30;98136.78;;;6.73;70.34
65756;BME280;52489;47.502;18.940;2023-02-23T00:39:37;98132.84;;;6.80;69.73
65756;BME280;52489;47.502;18.940;2023-02-23T00:40:41;98135.97;;;6.77;70.12
65756;BME280;52489;47.502;18.940;2023-02-23T00:41:44;98133.56;;;6.86;69.75
65756;BME280;52489;47.502;18.940;2023-02-23T00:42:48;98140.66;;;6.75;70.32
65756;BME280;52489;47.502;18.940;2023-02-23T00:43:57;98131.50;;;6.83;69.83
65756;BME280;52489;47.502;18.940;2023-02-23T00:45:00;98134.16;;;6.78;69.82
65756;BME280;52489;47.502;18.940;2023-02-23T00:46:09;98136.03;;;6.62;70.68
65756;BME280;52489;47.502;18.940;2023-02-23T00:47:13;98134.47;;;6.66;70.61
65756;BME280;52489;47.502;18.940;2023-02-23T00:48:16;98132.66;;;6.61;70.70
65756;BME280;52489;47.502;18.940;2023-02-23T00:49:20;98137.03;;;6.71;70.48
65756;BME280;52489;47.502;18.940;2023-02-23T00:50:23;98130.50;;;6.74;70.08
65756;BME280;52489;47.502;18.940;2023-02-23T00:51:27;98132.56;;;6.82;70.05
65756;BME280;52489;47.502;18.940;2023-02-23T00:52:32;98130.47;;;6.89;69.39
65756;BME280;52489;47.502;18.940;2023-02-23T00:53:35;98136.03;;;6.62;70.59
65756;BME280;52489;47.502;18.940;2023-02-23T00:54:38;98130.28;;;6.65;70.43
65756;BME280;52489;47.502;18.940;2023-02-23T00:55:41;98135.75;;;6.69;70.25
65756;BME280;52489;47.502;18.940;2023-02-23T00:56:44;98131.88;;;6.56;70.84
65756;BME280;52489;47.502;18.940;2023-02-23T00:57:48;98139.69;;;6.61;70.78
65756;BME280;52489;47.502;18.940;2023-02-23T00:58:51;98133.72;;;6.55;70.97
65756;BME280;52489;47.502;18.940;2023-02-23T00:59:54;98134.22;;;6.57;70.98
65756;BME280;52489;47.502;18.940;2023-02-23T01:00:58;98134.47;;;6.66;70.26
65756;BME280;52489;47.502;18.940;2023-02-23T01:02:01;98133.16;;;6.64;70.12
65756;BME280;52489;47.502;18.940;2023-02-23T01:03:04;98136.53;;;6.64;69.94
65756;BME280;52489;47.502;18.940;2023-02-23T01:04:07;98146.97;;;6.59;70.08
65756;BME280;52489;47.502;18.940;2023-02-23T01:05:10;98137.91;;;6.51;70.42
65756;BME280;52489;47.502;18.940;2023-02-23T01:06:16;98137.62;;;6.53;70.40
65756;BME280;52489;47.502;18.940;2023-02-23T01:07:19;98131.41;;;6.49;70.52
65756;BME280;52489;47.502;18.940;2023-02-23T01:08:22;98145.12;;;6.59;70.35
65756;BME280;52489;47.502;18.940;2023-02-23T01:09:25;98147.53;;;6.41;70.79
65756;BME280;52489;47.502;18.940;2023-02-23T01:10:31;98141.59;;;6.30;71.35
65756;BME280;52489;47.502;18.940;2023-02-23T01:11:34;98139.50;;;6.32;71.53
65756;BME280;52489;47.502;18.940;2023-02-23T01:12:37;98140.25;;;6.48;70.88
65756;BME280;52489;47.502;18.940;2023-02-23T01:13:42;98137.41;;;6.39;71.15
65756;BME280;52489;47.502;18.940;2023-02-23T01:14:45;98132.22;;;6.29;71.55
65756;BME280;52489;47.502;18.940;2023-02-23T01:15:49;98137.94;;;6.36;71.21
65756;BME280;52489;47.502;18.940;2023-02-23T01:16:53;98131.69;;;6.32;71.31
65756;BME280;52489;47.502;18.940;2023-02-23T01:17:57;98129.62;;;6.39;71.05
65756;BME280;52489;47.502;18.940;2023-02-23T01:19:01;98128.50;;;6.55;70.25
65756;BME280;52489;47.502;18.940;2023-02-23T01:20:06;98127.25;;;6.48;nan
65756;BME280;52489;47.502;18.940;2023-02-23T01:21:20;98125.44;;;6.33;71.05
65756;BME280;52489;47.502;18.940;2023-02-23T01:22:24;98133.00;;;6.29;70.82
65756;BME280;52489;47.502;18.940;2023-02-23T01:23:27;98135.06;;;6.37;70.62
65756;BME280;52489;47.502;18.940;2023-02-23T01:24:30;98136.13;;;6.31;70.88
65756;BME280;52489;47.502;18.940;2023-02-23T01:25:33;98134.88;;;6.19;71.10
65756;BME280;52489;47.502;18.940;2023-02-23T01:26:39;98130.97;;;6.21;71.47
65756;BME280;52489;47.502;18.940;2023-02-23T01:27:44;98126.53;;;6.22;71.15
65756;BME280;52489;47.502;18.940;2023-02-23T01:28:49;98131.69;;;6.32;70.41
65756;BME280;52489;47.502;18.940;2023-02-23T01:29:52;98129.09;;;6.27;70.37
65756;BME280;52489;47.502;18.940;2023-02-23T01:30:56;98133.56;;;6.21;70.60
65756;BME280;52489;47.502;18.940;2023-02-23T01:31:59;98140.06;;;6.19;71.19
65756;BME280;52489;47.502;18.940;2023-02-23T01:33:06;98132.25;;;6.08;71.56
65756;BME280;52489;47.502;18.940;2023-02-23T01:34:11;98132.25;;;6.03;71.56
65756;BME280;52489;47.502;18.940;2023-02-23T01:35:14;98133.56;;;6.11;71.21
65756;BME280;52489;47.502;18.940;2023-02-23T01:36:17;98128.38;;;6.11;71.42
65756;BME280;52489;47.502;18.940;2023-02-23T01:37:20;98118.72;;;6.11;71.66
65756;BME280;52489;47.502;18.940;2023-02-23T01:38:24;98122.91;;;6.12;71.46
65756;BME280;52489;47.502;18.940;2023-02-23T01:39:26;98123.94;;;6.17;71.28
65756;BME280;52489;47.502;18.940;2023-02-23T01:40:31;98124.94;;;6.26;70.95
65756;BME280;52489;47.502;18.940;2023-02-23T01:41:35;98129.62;;;6.24;70.93
65756;BME280;52489;47.502;18.940;2023-02-23T01:42:40;98129.38;;;6.20;71.15
65756;BME280;52489;47.502;18.940;2023-02-23T01:44:06;98129.62;;;6.29;71.04
65756;BME280;52489;47.502;18.940;2023-02-23T01:45:40;98117.16;;;6.21;71.40
65756;BME280;52489;47.502;18.940;2023-02-23T01:46:44;98127.06;;;6.13;71.51
65756;BME280;52489;47.502;18.940;2023-02-23T01:47:49;98122.09;;;6.17;71.19
65756;BME280;52489;47.502;18.940;2023-02-23T01:48:53;98118.72;;;6.11;71.46
65756;BME280;52489;47.502;18.940;2023-02-23T01:49:57;98120.06;;;6.04;71.86
65756;BME280;52489;47.502;18.940;2023-02-23T01:51:12;98113.28;;;6.08;71.60
65756;BME280;52489;47.502;18.940;2023-02-23T01:52:17;98118.72;;;6.17;71.32
65756;BME280;52489;47.502;18.940;2023-02-23T01:53:21;98121.13;;;5.98;71.91
65756;BME280;52489;47.502;18.940;2023-02-23T01:54:29;98123.44;;;5.94;72.00
65756;BME280;52489;47.502;18.940;2023-02-23T01:55:33;98118.25;;;5.99;71.86
65756;BME280;52489;47.502;18.940;2023-02-23T01:56:41;98115.88;;;6.08;71.07
65756;BME280;52489;47.502;18.940;2023-02-23T01:57:45;98112.00;;;6.05;70.92
65756;BME280;52489;47.502;18.940;2023-02-23T01:58:50;98119.00;;;6.00;71.32
65756;BME280;52489;47.502;18.940;2023-02-23T01:59:54;98121.38;;;5.96;71.24
65756;BME280;52489;47.502;18.940;2023-02-23T02:00:58;98116.44;;;5.95;71.12
65756;BME280;52489;47.502;18.940;2023-02-23T02:02:04;98117.47;;;5.83;71.42
65756;BME280;52489;47.502;18.940;2023-02-23T02:03:09;98112.22;;;5.88;71.39
65756;BME280;52489;47.502;18.940;2023-02-23T02:04:15;98115.09;;;5.87;71.47
65756;BME280;52489;47.502;18.940;2023-02-23T02:05:21;98118.50;;;5.92;71.28
65756;BME280;52489;47.502;18.940;2023-02-23T02:06:26;98121.09;;;5.92;70.81
65756;BME280;52489;47.502;18.940;2023-02-23T02:07:32;98117.72;;;5.87;70.97
65756;BME280;52489;47.502;18.940;2023-02-23T02:08:37;98125.25;;;5.78;71.19
65756;BME280;52489;47.502;18.940;2023-02-23T02:09:47;98122.12;;;5.81;71.17
65756;BME280;52489;47.502;18.940;2023-02-23T02:11:16;98126.28;;;5.72;71.59
65756;BME280;52489;47.502;18.940;2023-02-23T02:12:39;98117.47;;;5.78;71.18
65756;BME280;52489;47.502;18.940;2023-02-23T02:13:42;98124.22;;;5.84;70.97
65756;BME280;52489;47.502;18.940;2023-02-23T02:14:45;98116.41;;;5.84;70.90
65756;BME280;52489;47.502;18.940;2023-02-23T02:16:24;98117.72;;;5.97;70.41
65756;BME280;52489;47.502;18.940;2023-02-23T02:24:51;98117.22;;;5.75;71.66
65756;BME280;52489;47.502;18.940;2023-02-23T02:29:36;98111.47;;;5.67;71.25
65756;BME280;52489;47.502;18.940;2023-02-23T02:32:36;98108.66;;;5.95;70.33
65756;BME280;52489;47.502;18.940;2023-02-23T02:33:58;98110.44;;;5.94;70.20
65756;BME280;52489;47.502;18.940;2023-02-23T02:35:23;98112.25;;;5.93;70.52
65756;BME280;52489;47.502;18.940;2023-02-23T02:44:46;98110.16;;;5.90;69.89
65756;BME280;52489;47.502;18.940;2023-02-23T02:45:58;98116.41;;;5.79;70.53
65756;BME280;52489;47.502;18.940;2023-02-23T02:47:11;98118.22;;;5.84;70.41
65756;BME280;52489;47.502;18.940;2023-02-23T02:48:33;98117.47;;;5.78;70.48
65756;BME280;52489;47.502;18.940;2023-02-23T02:49:49;98126.81;;;5.84;70.34
65756;BME280;52489;47.502;18.940;2023-02-23T02:50:59;98124.22;;;5.89;70.01
65756;BME280;52489;47.502;18.940;2023-02-23T02:52:16;98128.13;;;5.92;69.96
65756;BME280;52489;47.502;18.940;2023-02-23T02:55:05;98124.72;;;5.91;69.56
65756;BME280;52489;47.502;18.940;2023-02-23T02:56:16;98129.66;;;5.88;69.92
65756;BME280;52489;47.502;18.940;2023-02-23T02:57:25;98133.31;;;5.82;70.50
65756;BME280;52489;47.502;18.940;2023-02-23T02:58:30;98129.41;;;5.89;70.17
65756;BME280;52489;47.502;18.940;2023-02-23T02:59:45;98130.47;;;5.83;70.17
65756;BME280;52489;47.502;18.940;2023-02-23T03:01:12;98135.66;;;5.83;70.42
65756;BME280;52489;47.502;18.940;2023-02-23T03:02:37;98133.81;;;5.74;70.71
65756;BME280;52489;47.502;18.940;2023-02-23T03:04:22;98137.47;;;5.73;70.62
65756;BME280;52489;47.502;18.940;2023-02-23T03:05:47;98130.44;;;5.73;70.38
65756;BME280;52489;47.502;18.940;2023-02-23T03:07:18;98136.69;;;5.72;70.49
65756;BME280;52489;47.502;18.940;2023-02-23T03:08:49;98132.81;;;5.80;70.19
65756;BME280;52489;47.502;18.940;2023-02-23T03:19:09;98129.69;;;5.83;70.18
65756;BME280;52489;47.502;18.940;2023-02-23T03:25:13;98136.69;;;6.03;69.24
65756;BME280;52489;47.502;18.940;2023-02-23T03:26:54;98137.50;;;5.93;69.65
65756;BME280;52489;47.502;18.940;2023-02-23T03:28:23;98135.91;;;5.87;69.55
65756;BME280;52489;47.502;18.940;2023-02-23T03:30:25;98134.59;;;5.89;69.38
65756;BME280;52489;47.502;18.940;2023-02-23T03:31:52;98138.28;;;6.04;69.05
65756;BME280;52489;47.502;18.940;2023-02-23T03:33:43;98145.28;;;5.93;69.73
65756;BME280;52489;47.502;18.940;2023-02-23T03:36:34;98139.03;;;6.04;68.88
65756;BME280;52489;47.502;18.940;2023-02-23T03:38:55;98138.75;;;6.06;68.94
65756;BME280;52489;47.502;18.940;2023-02-23T03:41:34;98141.91;;;6.08;68.92
65756;BME280;52489;47.502;18.940;2023-02-23T03:43:00;98143.44;;;6.14;68.50
65756;BME280;52489;47.502;18.940;2023-02-23T03:44:32;98134.59;;;6.20;68.59
65756;BME280;52489;47.502;18.940;2023-02-23T03:45:56;98142.41;;;6.10;68.89
65756;BME280;52489;47.502;18.940;2023-02-23T03:47:23;98139.53;;;6.11;68.78
65756;BME280;52489;47.502;18.940;2023-02-23T03:48:46;98138.25;;;6.14;68.64
65756;BME280;52489;47.502;18.940;2023-02-23T03:50:16;98141.66;;;6.09;68.72
65756;BME280;52489;47.502;18.940;2023-02-23T03:51:41;98144.50;;;5.92;69.72
65756;BME280;52489;47.502;18.940;2023-02-23T03:53:06;98145.81;;;5.95;69.58
65756;BME280;52489;47.502;18.940;2023-02-23T03:54:35;98141.09;;;5.82;70.09
65756;BME280;52489;47.502;18.940;2023-02-23T03:56:00;98146.56;;;5.90;69.98
65756;BME280;52489;47.502;18.940;2023-02-23T03:57:24;98137.22;;;5.89;70.10
65756;BME280;52489;47.502;18.940;2023-02-23T03:58:55;98145.78;;;5.85;70.16
65756;BME280;52489;47.502;18.940;2023-02-23T04:00:24;98146.31;;;5.82;70.38
65756;BME280;52489;47.502;18.940;2023-02-23T04:01:52;98147.63;;;5.89;69.76
65756;BME280;52489;47.502;18.940;2023-02-23T04:03:17;98139.03;;;5.94;69.52
65756;BME280;52489;47.502;18.940;2023-02-23T04:04:39;98143.19;;;6.05;68.88
65756;BME280;52489;47.502;18.940;2023-02-23T04:06:03;98148.41;;;5.95;69.61
65756;BME280;52489;47.502;18.940;2023-02-23T04:07:27;98139.53;;;5.91;69.78
65756;BME280;52489;47.502;18.940;2023-02-23T04:08:50;98138.03;;;5.95;69.35
65756;BME280;52489;47.502;18.940;2023-02-23T04:10:12;98141.09;;;5.87;69.79
65756;BME280;52489;47.502;18.940;2023-02-23T04:13:10;98145.28;;;5.78;69.83
65756;BME280;52489;47.502;18.940;2023-02-23T04:14:23;98150.47;;;5.83;69.75
65756;BME280;52489;47.502;18.940;2023-02-23T04:15:38;98145.78;;;5.90;69.57
65756;BME280;52489;47.502;18.940;2023-02-23T04:16:42;98153.09;;;5.98;69.29
65756;BME280;52489;47.502;18.940;2023-02-23T04:17:46;98145.03;;;5.95;69.12
65756;BME280;52489;47.502;18.940;2023-02-23T04:18:49;98142.41;;;6.00;68.93
65756;BME280;52489;47.502;18.940;2023-02-23T04:19:53;98143.47;;;5.83;69.55
65756;BME280;52489;47.502;18.940;2023-02-23T04:20:58;98146.06;;;5.83;69.66
65756;BME280;52489;47.502;18.940;2023-02-23T04:22:01;98143.19;;;5.85;69.71
65756;BME280;52489;47.502;18.940;2023-02-23T04:23:04;98137.75;;;5.97;69.29
65756;BME280;52489;47.502;18.940;2023-02-23T04:24:08;98142.16;;;6.01;68.93
65756;BME280;52489;47.502;18.940;2023-02-23T04:25:13;98140.09;;;5.98;68.97
65756;BME280;52489;47.502;18.940;2023-02-23T04:26:18;98142.94;;;6.02;68.78
65756;BME280;52489;47.502;18.940;2023-02-23T04:27:21;98137.75;;;5.97;69.20
65756;BME280;52489;47.502;18.940;2023-02-23T04:28:26;98148.16;;;5.97;69.25
65756;BME280;52489;47.502;18.940;2023-02-23T04:29:29;98147.63;;;5.89;69.35
65756;BME280;52489;47.502;18.940;2023-02-23T04:30:32;98144.50;;;5.92;69.11
65756;BME280;52489;47.502;18.940;2023-02-23T04:31:35;98141.63;;;5.79;70.05
65756;BME280;52489;47.502;18.940;2023-02-23T04:32:37;98147.63;;;5.89;69.75
65756;BME280;52489;47.502;18.940;2023-02-23T04:33:41;98143.97;;;5.90;69.43
65756;BME280;52489;47.502;18.940;2023-02-23T04:34:44;98140.84;;;5.88;69.29
65756;BME280;52489;47.502;18.940;2023-02-23T04:35:47;98141.09;;;5.82;69.55
65756;BME280;52489;47.502;18.940;2023-02-23T04:36:50;98140.31;;;5.91;69.33
65756;BME280;52489;47.502;18.940;2023-02-23T04:37:53;98146.31;;;5.82;69.41
65756;BME280;52489;47.502;18.940;2023-02-23T04:38:56;98146.81;;;5.79;69.74
65756;BME280;52489;47.502;18.940;2023-02-23T04:39:59;98145.03;;;5.74;70.02
65756;BME280;52489;47.502;18.940;2023-02-23T04:41:02;98142.16;;;5.96;69.34
65756;BME280;52489;47.502;18.940;2023-02-23T04:42:05;98144.25;;;5.89;69.41
65756;BME280;52489;47.502;18.940;2023-02-23T04:43:11;98144.50;;;5.92;69.25
65756;BME280;52489;47.502;18.940;2023-02-23T04:44:16;98145.53;;;5.86;69.33
65756;BME280;52489;47.502;18.940;2023-02-23T04:45:19;98136.44;;;5.84;69.45
65756;BME280;52489;47.502;18.940;2023-02-23T04:46:23;98149.97;;;5.86;69.61
65756;BME280;52489;47.502;18.940;2023-02-23T04:47:26;98146.81;;;5.79;69.58
65756;BME280;52489;47.502;18.940;2023-02-23T04:48:30;98139.81;;;5.84;69.43
65756;BME280;52489;47.502;18.940;2023-02-23T04:49:32;98147.59;;;5.79;69.67
65756;BME280;52489;47.502;18.940;2023-02-23T04:50:36;98141.63;;;5.79;69.51
65756;BME280;52489;47.502;18.940;2023-02-23T04:51:39;98143.72;;;5.72;69.96
65756;BME280;52489;47.502;18.940;2023-02-23T04:52:42;98142.66;;;5.88;69.25
65756;BME280;52489;47.502;18.940;2023-02-23T04:53:44;98148.91;;;5.87;69.02
65756;BME280;52489;47.502;18.940;2023-02-23T04:54:47;98147.88;;;5.83;69.18
65756;BME280;52489;47.502;18.940;2023-02-23T04:55:50;98139.81;;;5.84;69.25
65756;BME280;52489;47.502;18.940;2023-02-23T04:56:53;98144.47;;;5.87;69.10
65756;BME280;52489;47.502;18.940;2023-02-23T04:57:58;98144.47;;;5.87;68.86
65756;BME280;52489;47.502;18.940;2023-02-23T04:59:01;98142.69;;;5.83;69.07
65756;BME280;52489;47.502;18.940;2023-02-23T05:00:05;98142.94;;;5.86;69.05
65756;BME280;52489;47.502;18.940;2023-02-23T05:01:08;98147.09;;;5.72;69.55
65756;BME280;52489;47.502;18.940;2023-02-23T05:02:11;98146.56;;;5.70;69.77
65756;BME280;52489;47.502;18.940;2023-02-23T05:03:15;98143.72;;;5.66;69.94
65756;BME280;52489;47.502;18.940;2023-02-23T05:04:18;98148.13;;;5.61;70.31
65756;BME280;52489;47.502;18.940;2023-02-23T05:05:21;98147.59;;;5.59;70.31
65756;BME280;52489;47.502;18.940;2023-02-23T05:06:24;98143.44;;;5.53;70.91
65756;BME280;52489;47.502;18.940;2023-02-23T05:07:27;98142.66;;;5.47;71.13
65756;BME280;52489;47.502;18.940;2023-02-23T05:08:30;98140.34;;;5.51;71.25
65756;BME280;52489;47.502;18.940;2023-02-23T05:09:33;98139.81;;;5.64;70.82
65756;BME280;52489;47.502;18.940;2023-02-23T05:10:37;98150.72;;;5.51;71.35
65756;BME280;52489;47.502;18.940;2023-02-23T05:11:41;98147.09;;;5.57;71.37
65756;BME280;52489;47.502;18.940;2023-02-23T05:12:44;98150.44;;;5.52;71.54
65756;BME280;52489;47.502;18.940;2023-02-23T05:13:48;98150.97;;;5.54;71.45
65756;BME280;52489;47.502;18.940;2023-02-23T05:14:51;98152.28;;;5.57;71.39
65756;BME280;52489;47.502;18.940;2023-02-23T05:15:56;98151.50;;;5.61;71.19
65756;BME280;52489;47.502;18.940;2023-02-23T05:16:59;98152.81;;;5.54;71.39
65756;BME280;52489;47.502;18.940;2023-02-23T05:18:03;98152.78;;;5.43;71.94
65756;BME280;52489;47.502;18.940;2023-02-23T05:19:08;98152.28;;;5.62;71.38
65756;BME280;52489;47.502;18.940;2023-02-23T05:20:12;98146.03;;;5.58;71.32
65756;BME280;52489;47.502;18.940;2023-02-23T05:21:16;98149.69;;;5.57;71.12
65756;BME280;52489;47.502;18.940;2023-02-23T05:22:19;98151.50;;;5.51;71.48
65756;BME280;52489;47.502;18.940;2023-02-23T05:23:22;98150.97;;;5.54;71.47
65756;BME280;52489;47.502;18.940;2023-02-23T05:24:25;98157.97;;;5.43;71.94
65756;BME280;52489;47.502;18.940;2023-02-23T05:25:28;98152.00;;;5.43;72.02
65756;BME280;52489;47.502;18.940;2023-02-23T05:26:30;98159.03;;;5.53;71.66
65756;BME280;52489;47.502;18.940;2023-02-23T05:27:33;98153.81;;;5.53;71.63
65756;BME280;52489;47.502;18.940;2023-02-23T05:28:38;98156.44;;;5.53;71.57
65756;BME280;52489;47.502;18.940;2023-02-23T05:29:41;98156.94;;;5.50;71.52
65756;BME280;52489;47.502;18.940;2023-02-23T05:30:44;98164.22;;;5.53;71.17
65756;BME280;52489;47.502;18.940;2023-02-23T05:31:47;98153.81;;;5.53;71.10
65756;BME280;52489;47.502;18.940;2023-02-23T05:32:50;98159.53;;;5.50;71.13
65756;BME280;52489;47.502;18.940;2023-02-23T05:33:53;98160.56;;;5.43;71.24
65756;BME280;52489;47.502;18.940;2023-02-23T05:34:56;98158.25;;;5.52;70.98
65756;BME280;52489;47.502;18.940;2023-02-23T05:35:59;98157.97;;;5.59;70.49
65756;BME280;52489;47.502;18.940;2023-02-23T05:37:02;98157.75;;;5.65;70.19
65756;BME280;52489;47.502;18.940;2023-02-23T05:38:05;98152.03;;;5.63;70.37
65756;BME280;52489;47.502;18.940;2023-02-23T05:39:09;98155.38;;;5.59;70.52
65756;BME280;52489;47.502;18.940;2023-02-23T05:40:12;98152.28;;;5.57;70.08
65756;BME280;52489;47.502;18.940;2023-02-23T05:41:19;98160.59;;;5.54;69.83
65756;BME280;52489;47.502;18.940;2023-02-23T05:42:23;98167.34;;;5.55;70.00
65756;BME280;52489;47.502;18.940;2023-02-23T05:43:26;98160.34;;;5.60;69.97
65756;BME280;52489;47.502;18.940;2023-02-23T05:44:29;98152.78;;;5.43;70.38
65756;BME280;52489;47.502;18.940;2023-02-23T05:45:32;98149.16;;;5.50;70.22
65756;BME280;52489;47.502;18.940;2023-02-23T05:46:34;98149.16;;;5.50;70.00
65756;BME280;52489;47.502;18.940;2023-02-23T05:47:38;98155.66;;;5.42;70.13
65756;BME280;52489;47.502;18.940;2023-02-23T05:48:41;98158.22;;;5.47;69.95
65756;BME280;52489;47.502;18.940;2023-02-23T05:49:44;98155.66;;;5.52;70.11
65756;BME280;52489;47.502;18.940;2023-02-23T05:50:47;98152.53;;;5.45;70.10
65756;BME280;52489;47.502;18.940;2023-02-23T05:51:51;98166.84;;;5.47;70.31
65756;BME280;52489;47.502;18.940;2023-02-23T05:52:53;98163.69;;;5.40;70.33
65756;BME280;52489;47.502;18.940;2023-02-23T05:53:57;98159.81;;;5.43;70.43
65756;BME280;52489;47.502;18.940;2023-02-23T05:55:00;98161.88;;;5.41;70.38
65756;BME280;52489;47.502;18.940;2023-02-23T05:56:04;98161.88;;;5.41;70.36
65756;BME280;52489;47.502;18.940;2023-02-23T05:57:07;98166.81;;;5.37;70.81
65756;BME280;52489;47.502;18.940;2023-02-23T05:58:10;98166.03;;;5.42;70.26
65756;BME280;52489;47.502;18.940;2023-02-23T05:59:13;98165.78;;;5.43;70.05
65756;BME280;52489;47.502;18.940;2023-02-23T06:00:16;98167.34;;;5.55;69.49
65756;BME280;52489;47.502;18.940;2023-02-23T06:01:21;98175.16;;;5.55;69.61
65756;BME280;52489;47.502;18.940;2023-02-23T06:02:24;98180.34;;;5.55;69.36
65756;BME280;52489;47.502;18.940;2023-02-23T06:03:27;98172.28;;;5.51;69.47
65756;BME280;52489;47.502;18.940;2023-02-23T06:04:29;98178.00;;;5.63;69.04
65756;BME280;52489;47.502;18.940;2023-02-23T06:05:32;98176.97;;;5.59;69.06
65756;BME280;52489;47.502;18.940;2023-02-23T06:06:35;98181.13;;;5.60;69.03
65756;BME280;52489;47.502;18.940;2023-02-23T06:07:38;98174.63;;;5.58;69.27
65756;BME280;52489;47.502;18.940;2023-02-23T06:08:41;98174.63;;;5.58;69.26
65756;BME280;52489;47.502;18.940;2023-02-23T06:09:44;98176.44;;;5.57;69.02
65756;BME280;52489;47.502;18.940;2023-02-23T06:10:47;98166.84;;;5.58;69.23
65756;BME280;52489;47.502;18.940;2023-02-23T06:11:50;98174.38;;;5.69;68.82
65756;BME280;52489;47.502;18.940;2023-02-23T06:12:53;98174.09;;;5.56;69.13
65756;BME280;52489;47.502;18.940;2023-02-23T06:13:57;98181.13;;;5.45;69.27
65756;BME280;52489;47.502;18.940;2023-02-23T06:15:00;98176.41;;;5.37;69.79
65756;BME280;52489;47.502;18.940;2023-02-23T06:16:04;98181.63;;;5.42;69.77
65756;BME280;52489;47.502;18.940;2023-02-23T06:17:08;98178.75;;;5.43;69.93
65756;BME280;52489;47.502;18.940;2023-02-23T06:18:11;98186.28;;;5.40;69.89
65756;BME280;52489;47.502;18.940;2023-02-23T06:19:14;98187.87;;;5.46;69.94
65756;BME280;52489;47.502;18.940;2023-02-23T06:20:17;98186.84;;;5.52;69.77
65756;BME280;52489;47.502;18.940;2023-02-23T06:21:19;98191.25;;;5.62;69.46
65756;BME280;52489;47.502;18.940;2023-02-23T06:22:22;98191.78;;;5.59;69.40
65756;BME280;52489;47.502;18.940;2023-02-23T06:23:26;98198.00;;;5.58;69.41
65756;BME280;52489;47.502;18.940;2023-02-23T06:24:29;98194.09;;;5.50;69.79
65756;BME280;52489;47.502;18.940;2023-02-23T06:25:32;98198.81;;;5.74;69.12
65756;BME280;52489;47.502;18.940;2023-02-23T06:26:35;98194.13;;;5.65;68.76
65756;BME280;52489;47.502;18.940;2023-02-23T06:27:38;98204.81;;;5.74;68.64
65756;BME280;52489;47.502;18.940;2023-02-23T06:28:42;98201.66;;;5.62;68.93
65756;BME280;52489;47.502;18.940;2023-02-23T06:29:44;98199.06;;;5.67;68.79
65756;BME280;52489;47.502;18.940;2023-02-23T06:30:51;98212.06;;;5.57;69.02
65756;BME280;52489;47.502;18.940;2023-02-23T06:31:54;98211.00;;;5.58;69.39
65756;BME280;52489;47.502;18.940;2023-02-23T06:33:00;98206.34;;;5.60;69.28
65756;BME280;52489;47.502;18.940;2023-02-23T06:34:02;98206.84;;;5.62;69.15
65756;BME280;52489;47.502;18.940;2023-02-23T06:35:06;98210.53;;;5.71;68.59
65756;BME280;52489;47.502;18.940;2023-02-23T06:36:09;98213.38;;;5.75;68.57
65756;BME280;52489;47.502;18.940;2023-02-23T06:37:12;98215.72;;;5.66;68.44
65756;BME280;52489;47.502;18.940;2023-02-23T06:38:15;98221.41;;;5.73;68.44
65756;BME280;52489;47.502;18.940;2023-02-23T06:39:18;98215.69;;;5.76;68.38
65756;BME280;52489;47.502;18.940;2023-02-23T06:40:21;98222.47;;;5.72;67.90